Airport View

Enter AWOS ICAO identifier for current METAR.

ex. KFNL

KGPT 041453Z 00000KT 10SM FEW016 28/23 A2992 RMK AO2 SLP131 T02780228 50005

4 Jul 2020 15:59

Phone: 228-867-9937

Other Area AWOS: KBIX - KHSA - KPQL - KMJD

TAF KGPT 041120Z 0412/0512 31005KT P6SM VCTS FEW040CB SCT100 FM041600 29005KT P6SM -SHRA VCTS SCT025CB BKN090 FM042000 25007KT 5SM SHRA BR VCTS SCT025CB BKN090 FM042100 VRB04KT P6SM VCTS SCT030CB BKN100 FM050600 00000KT P6SM FEW025 SCT100